createdAt,value
2023-05-15T00:00:25.227Z,10.80
2023-05-15T00:02:53.363Z,10.90
2023-05-15T00:05:21.624Z,10.80
2023-05-15T00:07:49.905Z,10.80
2023-05-15T00:10:17.940Z,10.80
2023-05-15T00:12:45.973Z,10.80
2023-05-15T00:15:15.448Z,10.90
2023-05-15T00:17:43.517Z,10.90
2023-05-15T00:20:13.353Z,11.00
2023-05-15T00:22:41.396Z,11.00
2023-05-15T00:25:10.434Z,11.00
2023-05-15T00:27:38.656Z,11.10
2023-05-15T00:30:07.802Z,11.10
2023-05-15T00:32:37.348Z,11.20
2023-05-15T00:35:06.226Z,11.20
2023-05-15T00:37:34.302Z,11.20
2023-05-15T00:40:02.387Z,11.20
2023-05-15T00:42:31.700Z,11.10
2023-05-15T00:45:01.929Z,11.10
2023-05-15T00:47:31.041Z,11.20
2023-05-15T00:50:01.307Z,11.20
2023-05-15T00:52:30.501Z,11.20
2023-05-15T00:54:59.294Z,11.20
2023-05-15T00:57:28.808Z,11.20
2023-05-15T00:59:58.717Z,11.10
2023-05-15T01:02:26.963Z,11.10
2023-05-15T01:04:55.292Z,11.10
2023-05-15T01:07:24.856Z,11.10
2023-05-15T01:09:54.993Z,11.10
2023-05-15T01:12:27.018Z,11.00
2023-05-15T01:14:55.128Z,11.00
2023-05-15T01:17:23.255Z,11.00
2023-05-15T01:19:53.440Z,11.00
2023-05-15T01:22:42.178Z,11.00
2023-05-15T01:25:49.351Z,10.90
2023-05-15T01:28:23.596Z,11.00
2023-05-15T01:30:52.968Z,11.00
2023-05-15T01:33:27.255Z,11.00
2023-05-15T01:36:02.549Z,10.90
2023-05-15T01:38:38.046Z,10.90
2023-05-15T01:41:11.898Z,10.90
2023-05-15T01:43:46.310Z,10.90
2023-05-15T01:46:18.273Z,10.90
2023-05-15T01:48:47.279Z,10.90
2023-05-15T01:51:16.992Z,10.90
2023-05-15T01:53:46.095Z,10.90
2023-05-15T01:56:16.302Z,10.90
2023-05-15T01:58:46.294Z,10.90
2023-05-15T02:01:15.247Z,10.80
2023-05-15T02:03:44.598Z,10.80
2023-05-15T02:06:13.894Z,10.90
2023-05-15T02:08:43.027Z,10.90
2023-05-15T02:11:11.801Z,10.90
2023-05-15T02:13:41.327Z,10.80
2023-05-15T02:16:10.868Z,10.70
2023-05-15T02:18:39.038Z,10.60
2023-05-15T02:21:07.167Z,10.50
2023-05-15T02:23:37.125Z,10.50
2023-05-15T02:26:15.063Z,10.40
2023-05-15T02:28:49.608Z,10.40
2023-05-15T02:31:27.680Z,10.40
2023-05-15T02:34:01.967Z,10.40
2023-05-15T02:36:34.463Z,10.40
2023-05-15T02:39:03.651Z,10.40
2023-05-15T02:41:34.465Z,10.40
2023-05-15T02:44:03.713Z,10.40
2023-05-15T02:46:33.780Z,10.40
2023-05-15T02:49:02.673Z,10.40
2023-05-15T02:51:31.162Z,10.40
2023-05-15T02:54:01.581Z,10.40
2023-05-15T02:56:29.626Z,10.40
2023-05-15T02:58:57.862Z,10.40
2023-05-15T03:01:25.972Z,10.40
2023-05-15T03:03:55.565Z,10.40
2023-05-15T03:06:23.644Z,10.40
2023-05-15T03:08:51.795Z,10.40
2023-05-15T03:11:21.280Z,10.40
2023-05-15T03:13:49.497Z,10.40
2023-05-15T03:16:17.548Z,10.50
2023-05-15T03:18:46.509Z,10.40
2023-05-15T03:21:15.929Z,10.50
2023-05-15T03:23:43.936Z,10.40
2023-05-15T03:26:12.836Z,10.50
2023-05-15T03:28:42.286Z,10.50
2023-05-15T03:31:10.806Z,10.50
2023-05-15T03:33:39.499Z,10.50
2023-05-15T03:36:08.182Z,10.40
2023-05-15T03:38:38.091Z,10.40
2023-05-15T03:41:06.175Z,10.40
2023-05-15T03:43:34.287Z,10.40
2023-05-15T03:46:02.690Z,10.40
2023-05-15T03:48:30.889Z,10.30
2023-05-15T03:50:59.031Z,10.40
2023-05-15T03:53:27.150Z,10.40
2023-05-15T03:55:56.791Z,10.30
2023-05-15T03:58:24.828Z,10.30
2023-05-15T04:00:53.007Z,10.30
2023-05-15T04:03:21.070Z,10.30
2023-05-15T04:05:50.196Z,10.30
2023-05-15T04:08:18.390Z,10.30
2023-05-15T04:10:47.320Z,10.30
2023-05-15T04:13:16.851Z,10.30
2023-05-15T04:15:45.003Z,10.30
2023-05-15T04:18:13.047Z,10.30
2023-05-15T04:20:41.108Z,10.30
2023-05-15T04:23:09.157Z,10.30
2023-05-15T04:25:38.320Z,10.30
2023-05-15T04:28:06.628Z,10.30
2023-05-15T04:30:36.035Z,10.30
2023-05-15T04:33:04.230Z,10.20
2023-05-15T04:35:32.482Z,10.20
2023-05-15T06:35:24.384Z,10.70
2023-05-15T06:37:53.182Z,10.80
2023-05-15T06:40:22.448Z,10.90
2023-05-15T06:42:50.686Z,11.00
2023-05-15T06:45:19.777Z,11.00
2023-05-15T06:47:47.846Z,11.10
2023-05-15T06:50:15.964Z,11.10
2023-05-15T06:52:45.361Z,11.20
2023-05-15T06:55:13.434Z,11.20
2023-05-15T06:57:41.524Z,11.20
2023-05-15T07:00:10.844Z,11.20
2023-05-15T07:02:38.980Z,11.20
2023-05-15T07:05:08.805Z,11.30
2023-05-15T07:07:37.065Z,11.40
2023-05-15T07:10:07.834Z,11.50
2023-05-15T07:12:35.966Z,11.60
2023-05-15T07:15:04.066Z,11.50
2023-05-15T07:17:33.127Z,11.60
2023-05-15T07:20:01.335Z,11.50
2023-05-15T07:22:29.590Z,11.60
2023-05-15T07:24:57.809Z,11.60
2023-05-15T07:27:27.654Z,11.50
2023-05-15T07:29:55.664Z,11.50
2023-05-15T07:32:23.755Z,11.60
2023-05-15T07:34:53.378Z,11.60
2023-05-15T07:37:21.430Z,11.60
2023-05-15T07:39:49.534Z,11.70
2023-05-15T07:42:17.619Z,11.80
2023-05-15T07:44:49.351Z,11.90
2023-05-15T07:47:18.806Z,12.00
2023-05-15T07:49:46.784Z,12.00
2023-05-15T07:52:14.801Z,11.90
2023-05-15T07:54:43.069Z,11.90
2023-05-15T07:57:11.243Z,11.90
2023-05-15T07:59:39.435Z,11.90
2023-05-15T08:02:09.089Z,11.90
2023-05-15T08:04:37.403Z,12.00
2023-05-15T08:07:05.770Z,12.00
2023-05-15T08:09:34.424Z,12.00
2023-05-15T08:12:17.880Z,12.10
2023-05-15T08:14:45.976Z,12.20
2023-05-15T08:17:15.508Z,12.30
2023-05-15T08:19:43.799Z,12.30
2023-05-15T08:22:11.877Z,12.40
2023-05-15T08:24:40.190Z,12.40
2023-05-15T08:27:09.700Z,12.50
2023-05-15T08:29:39.680Z,12.50
2023-05-15T08:32:09.428Z,12.40
2023-05-15T08:34:39.184Z,12.50
2023-05-15T08:37:07.487Z,12.50
2023-05-15T08:39:35.805Z,12.60
2023-05-15T08:42:09.643Z,12.70
2023-05-15T08:44:39.447Z,12.70
2023-05-15T08:47:08.014Z,12.80
2023-05-15T08:49:55.061Z,12.90
2023-05-15T08:52:23.526Z,12.90
2023-05-15T08:54:51.786Z,12.90
2023-05-15T08:57:20.109Z,13.00
2023-05-15T08:59:49.068Z,13.00
2023-05-15T09:02:18.167Z,13.10
2023-05-15T09:04:47.664Z,13.30
2023-05-15T09:07:16.911Z,13.40
2023-05-15T09:09:46.304Z,13.60
2023-05-15T09:12:16.973Z,13.70
2023-05-15T09:14:45.362Z,13.90
2023-05-15T09:17:14.110Z,14.10
2023-05-15T09:19:43.592Z,14.20
2023-05-15T09:22:18.245Z,14.30
2023-05-15T09:24:48.334Z,14.40
2023-05-15T09:27:16.694Z,14.40
2023-05-15T09:29:45.386Z,14.30
2023-05-15T09:32:15.748Z,14.40
2023-05-15T09:34:45.929Z,14.40
2023-05-15T09:37:31.127Z,14.50
2023-05-15T09:40:10.887Z,14.40
2023-05-15T09:42:40.268Z,14.40
2023-05-15T09:45:18.877Z,14.20
2023-05-15T09:47:47.940Z,14.30
2023-05-15T09:50:22.859Z,14.50
2023-05-15T09:52:52.884Z,14.60
2023-05-15T09:55:22.322Z,14.70
2023-05-15T09:58:06.734Z,14.80
2023-05-15T10:00:35.400Z,14.70
2023-05-15T10:03:04.652Z,14.80
2023-05-15T10:05:43.072Z,14.90
2023-05-15T10:08:15.138Z,15.10
2023-05-15T10:10:43.501Z,15.30
2023-05-15T10:13:12.652Z,15.40
2023-05-15T10:15:41.830Z,15.50
2023-05-15T10:18:10.145Z,15.50
2023-05-15T10:20:39.122Z,15.40
2023-05-15T10:23:09.614Z,15.40
2023-05-15T10:25:43.174Z,15.40
2023-05-15T10:28:12.637Z,15.40
2023-05-15T10:30:40.866Z,15.30
2023-05-15T10:33:09.877Z,15.10
2023-05-15T10:35:40.887Z,15.10
2023-05-15T10:38:09.677Z,15.10
2023-05-15T10:40:41.417Z,15.20
2023-05-15T10:43:11.646Z,15.30
2023-05-15T10:45:40.837Z,15.40
2023-05-15T10:48:12.409Z,15.50
2023-05-15T10:50:41.039Z,15.70
2023-05-15T10:53:11.047Z,15.80
2023-05-15T10:55:41.593Z,16.10
2023-05-15T10:58:12.883Z,16.20
2023-05-15T11:00:45.749Z,16.30
2023-05-15T11:03:16.018Z,16.50
2023-05-15T11:06:10.823Z,16.70
2023-05-15T11:08:40.134Z,16.60
2023-05-15T11:11:10.229Z,16.50
2023-05-15T11:14:15.338Z,16.50
2023-05-15T11:17:00.220Z,16.60
2023-05-15T11:19:37.894Z,16.70
2023-05-15T11:22:19.193Z,16.70
2023-05-15T11:24:52.742Z,16.60
2023-05-15T11:27:24.680Z,16.70
2023-05-15T11:30:12.048Z,16.80
2023-05-15T11:32:50.596Z,16.80
2023-05-15T11:35:24.023Z,16.90
2023-05-15T11:37:54.239Z,17.10
2023-05-15T11:40:25.404Z,17.10
2023-05-15T11:43:03.657Z,17.20
2023-05-15T11:45:33.082Z,17.20
2023-05-15T11:48:03.576Z,17.20
2023-05-15T11:50:33.799Z,17.30
2023-05-15T11:53:07.088Z,17.50
2023-05-15T11:55:37.421Z,17.70
2023-05-15T11:58:11.948Z,17.50
2023-05-15T12:00:40.851Z,17.60
2023-05-15T12:03:16.134Z,17.70
2023-05-15T12:05:57.353Z,17.90
2023-05-15T12:08:26.380Z,18.00
2023-05-15T12:10:54.810Z,18.10
2023-05-15T12:13:25.730Z,18.20
2023-05-15T12:15:55.233Z,18.30
2023-05-15T12:18:23.640Z,18.70
2023-05-15T12:20:53.740Z,19.00
2023-05-15T12:23:23.460Z,19.20
2023-05-15T12:25:58.490Z,19.40
2023-05-15T12:28:28.771Z,19.50
2023-05-15T12:30:57.744Z,19.60
2023-05-15T12:33:26.911Z,19.50
2023-05-15T12:35:59.878Z,19.50
2023-05-15T12:38:30.677Z,19.60
2023-05-15T12:40:59.452Z,19.80
2023-05-15T12:43:29.673Z,19.80
2023-05-15T12:45:58.626Z,19.70
2023-05-15T12:48:32.362Z,19.60
2023-05-15T12:51:08.175Z,19.50
2023-05-15T12:53:40.214Z,19.30
2023-05-15T12:56:10.953Z,19.50
2023-05-15T12:58:41.445Z,19.40
2023-05-15T13:01:10.191Z,19.20
2023-05-15T13:03:39.336Z,19.10
2023-05-15T13:06:08.386Z,18.80
2023-05-15T13:08:41.701Z,18.60
2023-05-15T13:11:14.082Z,18.50
2023-05-15T13:13:48.410Z,18.50
2023-05-15T13:16:21.571Z,18.60
2023-05-15T13:18:50.037Z,18.70
2023-05-15T13:21:18.670Z,18.80
2023-05-15T13:23:46.932Z,18.80
2023-05-15T13:26:15.236Z,18.70
2023-05-15T13:28:43.641Z,18.60
2023-05-15T13:31:13.297Z,18.60
2023-05-15T13:33:41.787Z,18.70
2023-05-15T13:36:19.194Z,18.50
2023-05-15T13:38:47.448Z,18.30
2023-05-15T13:41:15.434Z,18.20
2023-05-15T13:43:43.747Z,18.00
2023-05-15T13:46:13.168Z,17.90
2023-05-15T13:48:41.203Z,17.90
2023-05-15T13:51:09.218Z,18.20
2023-05-15T13:53:37.209Z,18.40
2023-05-15T13:56:05.726Z,18.30
2023-05-15T13:58:33.819Z,18.20
2023-05-15T14:01:07.079Z,18.10
2023-05-15T14:03:36.707Z,18.20
2023-05-15T14:06:05.421Z,18.20
2023-05-15T14:08:33.524Z,18.30
2023-05-15T14:11:02.188Z,18.40
2023-05-15T14:13:31.599Z,18.80
2023-05-15T14:15:59.811Z,18.60
2023-05-15T14:18:29.459Z,18.30
2023-05-15T14:21:00.180Z,18.20
2023-05-15T14:23:28.392Z,17.90
2023-05-15T14:25:56.601Z,17.50
2023-05-15T14:28:24.915Z,17.20
2023-05-15T14:30:53.223Z,16.90
2023-05-15T14:33:21.436Z,16.60
2023-05-15T14:35:49.667Z,16.50
2023-05-15T14:38:19.462Z,16.40
2023-05-15T14:40:47.679Z,16.20
2023-05-15T14:43:15.993Z,16.20
2023-05-15T14:45:44.333Z,16.20
2023-05-15T14:48:12.674Z,16.20
2023-05-15T14:50:41.186Z,16.20
2023-05-15T14:53:09.531Z,16.20
2023-05-15T14:55:39.240Z,16.30
2023-05-15T14:58:11.330Z,16.20
2023-05-15T15:00:39.665Z,16.20
2023-05-15T15:03:08.796Z,16.30
2023-05-15T15:05:37.105Z,16.50
2023-05-15T15:08:07.215Z,16.70
2023-05-15T15:10:37.389Z,17.00
2023-05-15T15:13:10.060Z,17.20
2023-05-15T15:15:38.760Z,18.00
2023-05-15T15:18:07.330Z,19.40
2023-05-15T15:20:35.892Z,20.60
2023-05-15T15:23:04.795Z,21.40
2023-05-15T15:25:34.040Z,22.50
2023-05-15T15:28:04.726Z,23.70
2023-05-15T15:30:34.439Z,24.80
2023-05-15T15:33:02.829Z,25.60
2023-05-15T15:35:31.272Z,25.10
2023-05-15T15:37:59.522Z,24.60
2023-05-15T15:40:29.909Z,24.30
2023-05-15T15:42:58.714Z,23.80
2023-05-15T15:45:26.972Z,24.60
2023-05-15T15:47:56.788Z,25.50
2023-05-15T15:50:25.590Z,26.10
2023-05-15T15:52:53.972Z,26.70
2023-05-15T15:55:22.304Z,27.30
2023-05-15T15:57:50.714Z,27.30
2023-05-15T16:00:19.410Z,27.20
2023-05-15T16:02:47.884Z,26.70
2023-05-15T16:05:17.886Z,26.10
2023-05-15T16:07:48.028Z,25.80
2023-05-15T16:10:16.512Z,25.70
2023-05-15T16:12:45.763Z,26.10
2023-05-15T16:15:23.070Z,26.10
2023-05-15T16:17:54.111Z,25.90
2023-05-15T16:20:25.026Z,26.10
2023-05-15T16:22:53.738Z,26.20
2023-05-15T16:25:22.259Z,26.10
2023-05-15T16:27:50.938Z,26.30
2023-05-15T16:30:19.223Z,26.40
2023-05-15T16:32:48.693Z,26.50
2023-05-15T16:35:17.445Z,26.40
2023-05-15T16:37:47.313Z,26.20
2023-05-15T16:40:16.818Z,26.20
2023-05-15T16:42:45.235Z,26.10
2023-05-15T16:45:13.768Z,25.80
2023-05-15T16:47:42.107Z,25.70
2023-05-15T16:50:11.004Z,25.50
2023-05-15T16:52:45.344Z,25.70
2023-05-15T16:55:17.549Z,25.60
2023-05-15T16:57:46.424Z,25.10
2023-05-15T17:00:16.043Z,25.30
2023-05-15T17:02:45.017Z,25.30
2023-05-15T17:05:14.119Z,25.10
2023-05-15T17:07:43.650Z,25.00
2023-05-15T17:10:13.292Z,25.00
2023-05-15T17:12:43.092Z,25.00
2023-05-15T17:15:12.196Z,24.80
2023-05-15T17:17:40.421Z,24.60
2023-05-15T17:20:09.745Z,24.40
2023-05-15T17:22:38.955Z,24.00
2023-05-15T17:25:08.345Z,23.40
2023-05-15T17:27:39.865Z,22.70
2023-05-15T17:30:10.775Z,21.80
2023-05-15T17:32:39.438Z,21.00
2023-05-15T17:35:08.620Z,20.50
2023-05-15T17:37:37.418Z,20.20
2023-05-15T17:40:07.856Z,19.70
2023-05-15T17:42:36.145Z,19.30
2023-05-15T17:45:04.701Z,19.00
2023-05-15T17:47:34.303Z,18.80
2023-05-15T17:50:02.545Z,18.60
2023-05-15T17:52:30.894Z,18.30
2023-05-15T17:54:59.126Z,18.10
2023-05-15T17:57:27.857Z,17.90
2023-05-15T17:59:56.144Z,17.60
2023-05-15T18:02:24.477Z,17.40
2023-05-15T18:04:54.073Z,17.30
2023-05-15T18:07:22.275Z,17.10
2023-05-15T18:09:51.004Z,17.00
2023-05-15T18:12:19.195Z,16.90
2023-05-15T18:14:47.893Z,16.80
2023-05-15T18:17:16.417Z,16.70
2023-05-15T18:19:45.759Z,16.60
2023-05-15T18:22:15.747Z,16.50
2023-05-15T18:24:44.072Z,16.30
2023-05-15T18:27:12.453Z,16.20
2023-05-15T18:29:40.815Z,16.10
2023-05-15T18:32:10.189Z,15.90
2023-05-15T18:34:38.433Z,15.80
2023-05-15T18:37:06.942Z,15.70
2023-05-15T18:39:38.159Z,15.60
2023-05-15T18:42:07.155Z,15.60
2023-05-15T18:44:36.002Z,15.50
2023-05-15T18:47:05.219Z,15.40
2023-05-15T18:49:33.912Z,15.30
2023-05-15T18:52:02.380Z,15.30
2023-05-15T18:54:31.208Z,15.30
2023-05-15T18:57:00.929Z,15.30
2023-05-15T18:59:30.548Z,15.20
2023-05-15T19:01:59.019Z,15.10
2023-05-15T19:04:27.350Z,15.10
2023-05-15T19:06:55.577Z,15.10
2023-05-15T19:09:23.773Z,15.00
2023-05-15T19:11:52.577Z,14.90
2023-05-15T19:14:22.035Z,14.90
2023-05-15T19:16:50.278Z,14.90
2023-05-15T19:19:19.144Z,14.80
2023-05-15T19:21:50.447Z,14.80
2023-05-15T19:24:18.796Z,14.60
2023-05-15T19:26:47.241Z,14.50
2023-05-15T19:29:15.952Z,14.40
2023-05-15T19:31:46.929Z,14.30
2023-05-15T19:34:15.174Z,14.20
2023-05-15T19:36:46.784Z,14.20
2023-05-15T19:39:15.905Z,14.10
2023-05-15T19:41:44.971Z,14.00
2023-05-15T19:44:13.322Z,13.90
2023-05-15T19:46:42.001Z,13.80
2023-05-15T19:49:12.939Z,13.70
2023-05-15T19:51:42.147Z,13.70
2023-05-15T19:54:11.905Z,13.70
2023-05-15T19:56:40.474Z,13.70
2023-05-15T19:59:08.785Z,13.70
2023-05-15T20:01:37.039Z,13.80
2023-05-15T20:04:05.397Z,13.80
2023-05-15T20:06:35.369Z,13.70
2023-05-15T20:09:04.647Z,13.70
2023-05-15T20:11:32.936Z,13.60
2023-05-15T20:14:01.333Z,13.50
2023-05-15T20:16:29.664Z,13.50
2023-05-15T20:18:58.237Z,13.40
2023-05-15T20:21:27.000Z,13.40
2023-05-15T20:23:57.040Z,13.30
2023-05-15T20:26:25.539Z,13.30
2023-05-15T20:28:53.755Z,13.30
2023-05-15T20:31:22.196Z,13.20
2023-05-15T20:33:50.857Z,13.20
2023-05-15T20:36:19.485Z,13.10
2023-05-15T20:38:47.822Z,13.10
2023-05-15T20:41:18.727Z,13.10
2023-05-15T20:43:47.956Z,13.00
2023-05-15T20:46:16.517Z,12.90
2023-05-15T20:48:45.028Z,12.80
2023-05-15T20:51:13.349Z,12.80
2023-05-15T20:53:41.764Z,12.70
2023-05-15T20:56:09.980Z,12.70
2023-05-15T20:58:39.654Z,12.60
2023-05-15T21:01:07.913Z,12.60
2023-05-15T21:03:36.231Z,12.50
2023-05-15T21:06:04.749Z,12.50
2023-05-15T21:08:32.997Z,12.40
2023-05-15T21:11:01.170Z,12.30
2023-05-15T21:13:29.666Z,12.20
2023-05-15T21:15:59.279Z,12.20
2023-05-15T21:18:27.893Z,12.10
2023-05-15T21:20:56.406Z,12.10
2023-05-15T21:23:24.944Z,12.00
2023-05-15T21:25:54.244Z,12.00
2023-05-15T21:28:22.582Z,11.90
2023-05-15T21:30:50.870Z,11.90
2023-05-15T21:33:20.566Z,11.80
2023-05-15T21:35:48.985Z,11.80
2023-05-15T21:38:17.382Z,11.70
2023-05-15T21:40:45.898Z,11.70
2023-05-15T21:43:14.096Z,11.60
2023-05-15T21:45:42.236Z,11.60
2023-05-15T21:48:10.669Z,11.60
2023-05-15T21:50:40.264Z,11.60
2023-05-15T21:53:08.471Z,11.60
2023-05-15T21:55:36.985Z,11.60
2023-05-15T21:58:05.321Z,11.50
2023-05-15T22:00:33.511Z,11.50
2023-05-15T22:03:01.929Z,11.40
2023-05-15T22:05:30.226Z,11.40
2023-05-15T22:07:59.818Z,11.40
2023-05-15T22:10:28.511Z,11.30
2023-05-15T22:12:59.104Z,11.30
2023-05-15T22:15:27.290Z,11.20
2023-05-15T22:17:55.731Z,11.20
2023-05-15T22:20:24.919Z,11.20
2023-05-15T22:22:53.500Z,11.10
2023-05-15T22:25:23.106Z,11.10
2023-05-15T22:27:51.974Z,11.10
2023-05-15T22:30:21.010Z,11.10
2023-05-15T22:32:49.462Z,11.00
2023-05-15T22:35:18.850Z,11.00
2023-05-15T22:37:47.398Z,11.00
2023-05-15T22:40:15.693Z,10.90
2023-05-15T22:42:45.269Z,10.80
2023-05-15T22:45:14.270Z,10.80
2023-05-15T22:47:43.025Z,10.70
2023-05-15T22:50:12.047Z,10.70
2023-05-15T22:52:40.353Z,10.60
2023-05-15T22:55:10.449Z,10.60
2023-05-15T22:57:38.766Z,10.60
2023-05-15T23:00:09.952Z,10.60
2023-05-15T23:02:39.662Z,10.50
2023-05-15T23:05:09.497Z,10.50
2023-05-15T23:07:37.897Z,10.50
2023-05-15T23:10:07.113Z,10.50
2023-05-15T23:12:35.315Z,10.50
2023-05-15T23:15:03.534Z,10.50
2023-05-15T23:17:33.493Z,10.50
2023-05-15T23:20:01.860Z,10.50
2023-05-15T23:22:30.167Z,10.50
2023-05-15T23:24:58.569Z,10.60
2023-05-15T23:27:26.888Z,10.60
2023-05-15T23:29:55.423Z,10.60
2023-05-15T23:32:23.869Z,10.70
2023-05-15T23:34:54.455Z,10.70
2023-05-15T23:37:22.664Z,10.80
2023-05-15T23:39:50.854Z,10.80
2023-05-15T23:42:19.052Z,10.80
2023-05-15T23:44:47.194Z,10.80
2023-05-15T23:47:16.372Z,10.80
2023-05-15T23:49:44.576Z,10.70
2023-05-15T23:52:14.311Z,10.70
2023-05-15T23:54:42.600Z,10.70
2023-05-15T23:57:10.939Z,10.60
2023-05-15T23:59:39.124Z,10.60
